sensor_id;sensor_type;location;lat;lon;timestamp;temperature;humidity
78438;SHT31;67736;51.978;5.656;2023-08-20T00:01:12;21.8;70.8
78438;SHT31;67736;51.978;5.656;2023-08-20T00:03:43;21.8;70.8
78438;SHT31;67736;51.978;5.656;2023-08-20T00:06:14;21.8;71.0
78438;SHT31;67736;51.978;5.656;2023-08-20T00:08:43;21.8;71.1
78438;SHT31;67736;51.978;5.656;2023-08-20T00:11:17;21.8;71.0
78438;SHT31;67736;51.978;5.656;2023-08-20T00:13:47;21.8;70.9
78438;SHT31;67736;51.978;5.656;2023-08-20T00:16:18;21.8;70.9
78438;SHT31;67736;51.978;5.656;2023-08-20T00:18:47;21.7;70.7
78438;SHT31;67736;51.978;5.656;2023-08-20T00:21:18;21.8;70.6
78438;SHT31;67736;51.978;5.656;2023-08-20T00:23:48;21.8;70.4
78438;SHT31;67736;51.978;5.656;2023-08-20T00:26:18;21.8;70.1
78438;SHT31;67736;51.978;5.656;2023-08-20T00:28:48;21.8;70.1
78438;SHT31;67736;51.978;5.656;2023-08-20T00:31:17;21.8;69.6
78438;SHT31;67736;51.978;5.656;2023-08-20T00:33:48;21.8;69.6
78438;SHT31;67736;51.978;5.656;2023-08-20T00:36:18;21.8;69.6
78438;SHT31;67736;51.978;5.656;2023-08-20T00:38:47;21.8;69.4
78438;SHT31;67736;51.978;5.656;2023-08-20T00:41:17;21.8;69.4
78438;SHT31;67736;51.978;5.656;2023-08-20T00:43:46;21.8;69.3
78438;SHT31;67736;51.978;5.656;2023-08-20T00:46:16;21.8;69.1
78438;SHT31;67736;51.978;5.656;2023-08-20T00:48:46;21.8;69.0
78438;SHT31;67736;51.978;5.656;2023-08-20T00:51:15;21.8;68.9
78438;SHT31;67736;51.978;5.656;2023-08-20T00:53:45;21.8;69.1
78438;SHT31;67736;51.978;5.656;2023-08-20T00:56:16;21.8;69.3
78438;SHT31;67736;51.978;5.656;2023-08-20T00:58:46;21.7;69.1
78438;SHT31;67736;51.978;5.656;2023-08-20T01:01:15;21.7;69.2
78438;SHT31;67736;51.978;5.656;2023-08-20T01:03:45;21.7;69.7
78438;SHT31;67736;51.978;5.656;2023-08-20T01:06:22;21.7;69.7
78438;SHT31;67736;51.978;5.656;2023-08-20T01:08:58;21.7;70.0
78438;SHT31;67736;51.978;5.656;2023-08-20T01:11:40;21.7;70.1
78438;SHT31;67736;51.978;5.656;2023-08-20T01:14:17;21.7;70.2
78438;SHT31;67736;51.978;5.656;2023-08-20T01:16:47;21.7;70.2
78438;SHT31;67736;51.978;5.656;2023-08-20T01:19:19;21.7;70.3
78438;SHT31;67736;51.978;5.656;2023-08-20T01:21:58;21.7;70.4
78438;SHT31;67736;51.978;5.656;2023-08-20T01:24:43;21.7;70.4
78438;SHT31;67736;51.978;5.656;2023-08-20T01:27:30;21.7;70.5
78438;SHT31;67736;51.978;5.656;2023-08-20T01:30:05;21.7;70.3
78438;SHT31;67736;51.978;5.656;2023-08-20T01:32:37;21.7;70.2
78438;SHT31;67736;51.978;5.656;2023-08-20T01:35:11;21.7;70.1
78438;SHT31;67736;51.978;5.656;2023-08-20T01:37:42;21.7;70.1
78438;SHT31;67736;51.978;5.656;2023-08-20T01:40:12;21.7;69.9
78438;SHT31;67736;51.978;5.656;2023-08-20T01:42:42;21.7;69.8
78438;SHT31;67736;51.978;5.656;2023-08-20T01:45:12;21.7;69.9
78438;SHT31;67736;51.978;5.656;2023-08-20T01:47:41;21.7;70.1
78438;SHT31;67736;51.978;5.656;2023-08-20T01:50:11;21.7;70.2
78438;SHT31;67736;51.978;5.656;2023-08-20T01:52:41;21.7;70.2
78438;SHT31;67736;51.978;5.656;2023-08-20T01:55:13;21.7;69.8
78438;SHT31;67736;51.978;5.656;2023-08-20T01:57:42;21.7;69.8
78438;SHT31;67736;51.978;5.656;2023-08-20T02:00:13;21.6;69.8
78438;SHT31;67736;51.978;5.656;2023-08-20T02:02:43;21.6;69.7
78438;SHT31;67736;51.978;5.656;2023-08-20T02:05:12;21.6;69.8
78438;SHT31;67736;51.978;5.656;2023-08-20T02:07:42;21.6;69.9
78438;SHT31;67736;51.978;5.656;2023-08-20T02:10:11;21.6;69.9
78438;SHT31;67736;51.978;5.656;2023-08-20T02:12:41;21.5;69.7
78438;SHT31;67736;51.978;5.656;2023-08-20T02:15:13;21.5;69.2
78438;SHT31;67736;51.978;5.656;2023-08-20T02:17:43;21.5;69.0
78438;SHT31;67736;51.978;5.656;2023-08-20T02:20:12;21.5;69.1
78438;SHT31;67736;51.978;5.656;2023-08-20T02:22:42;21.4;69.3
78438;SHT31;67736;51.978;5.656;2023-08-20T02:25:11;21.4;69.1
78438;SHT31;67736;51.978;5.656;2023-08-20T02:27:41;21.4;69.3
78438;SHT31;67736;51.978;5.656;2023-08-20T02:30:11;21.4;69.5
78438;SHT31;67736;51.978;5.656;2023-08-20T02:32:42;21.3;69.3
78438;SHT31;67736;51.978;5.656;2023-08-20T02:35:14;21.3;69.2
78438;SHT31;67736;51.978;5.656;2023-08-20T02:37:44;21.3;69.3
78438;SHT31;67736;51.978;5.656;2023-08-20T02:40:14;21.3;69.1
78438;SHT31;67736;51.978;5.656;2023-08-20T02:42:44;21.2;68.7
78438;SHT31;67736;51.978;5.656;2023-08-20T02:45:14;21.2;68.7
78438;SHT31;67736;51.978;5.656;2023-08-20T02:47:43;21.2;68.6
78438;SHT31;67736;51.978;5.656;2023-08-20T02:50:13;21.2;68.5
78438;SHT31;67736;51.978;5.656;2023-08-20T02:52:42;21.1;68.6
78438;SHT31;67736;51.978;5.656;2023-08-20T02:55:12;21.1;68.7
78438;SHT31;67736;51.978;5.656;2023-08-20T02:57:42;21.1;68.9
78438;SHT31;67736;51.978;5.656;2023-08-20T03:00:12;21.1;68.8
78438;SHT31;67736;51.978;5.656;2023-08-20T03:02:43;21.0;68.7
78438;SHT31;67736;51.978;5.656;2023-08-20T03:05:12;21.0;68.5
78438;SHT31;67736;51.978;5.656;2023-08-20T03:07:44;21.0;68.9
78438;SHT31;67736;51.978;5.656;2023-08-20T03:10:14;20.9;69.2
78438;SHT31;67736;51.978;5.656;2023-08-20T03:12:44;20.9;69.5
78438;SHT31;67736;51.978;5.656;2023-08-20T03:15:13;20.8;69.9
78438;SHT31;67736;51.978;5.656;2023-08-20T03:17:43;20.8;69.7
78438;SHT31;67736;51.978;5.656;2023-08-20T03:20:13;20.8;69.7
78438;SHT31;67736;51.978;5.656;2023-08-20T03:22:43;20.8;69.7
78438;SHT31;67736;51.978;5.656;2023-08-20T03:25:12;20.7;69.6
78438;SHT31;67736;51.978;5.656;2023-08-20T03:27:42;20.7;69.7
78438;SHT31;67736;51.978;5.656;2023-08-20T03:30:12;20.7;69.8
78438;SHT31;67736;51.978;5.656;2023-08-20T03:32:42;20.7;70.7
78438;SHT31;67736;51.978;5.656;2023-08-20T03:35:11;20.6;70.8
78438;SHT31;67736;51.978;5.656;2023-08-20T03:37:41;20.6;70.7
78438;SHT31;67736;51.978;5.656;2023-08-20T03:40:11;20.6;70.8
78438;SHT31;67736;51.978;5.656;2023-08-20T03:42:42;20.6;71.0
78438;SHT31;67736;51.978;5.656;2023-08-20T03:45:11;20.6;71.4
78438;SHT31;67736;51.978;5.656;2023-08-20T03:47:41;20.6;71.5
78438;SHT31;67736;51.978;5.656;2023-08-20T03:50:14;20.5;71.4
78438;SHT31;67736;51.978;5.656;2023-08-20T03:52:43;20.5;71.1
78438;SHT31;67736;51.978;5.656;2023-08-20T03:55:13;20.5;70.6
78438;SHT31;67736;51.978;5.656;2023-08-20T03:57:42;20.5;71.4
78438;SHT31;67736;51.978;5.656;2023-08-20T04:00:13;20.5;71.4
78438;SHT31;67736;51.978;5.656;2023-08-20T04:02:42;20.4;71.3
78438;SHT31;67736;51.978;5.656;2023-08-20T04:05:12;20.4;71.2
78438;SHT31;67736;51.978;5.656;2023-08-20T04:07:42;20.4;71.2
78438;SHT31;67736;51.978;5.656;2023-08-20T04:10:11;20.4;70.7
78438;SHT31;67736;51.978;5.656;2023-08-20T04:12:41;20.4;70.2
78438;SHT31;67736;51.978;5.656;2023-08-20T04:15:11;20.4;69.8
78438;SHT31;67736;51.978;5.656;2023-08-20T04:17:40;20.4;70.3
78438;SHT31;67736;51.978;5.656;2023-08-20T04:20:11;20.3;70.3
78438;SHT31;67736;51.978;5.656;2023-08-20T04:22:40;20.3;71.1
78438;SHT31;67736;51.978;5.656;2023-08-20T04:25:13;20.3;70.9
78438;SHT31;67736;51.978;5.656;2023-08-20T04:27:43;20.3;70.9
78438;SHT31;67736;51.978;5.656;2023-08-20T04:30:13;20.3;70.6
78438;SHT31;67736;51.978;5.656;2023-08-20T04:32:44;20.3;70.7
78438;SHT31;67736;51.978;5.656;2023-08-20T04:35:14;20.2;70.3
78438;SHT31;67736;51.978;5.656;2023-08-20T04:37:43;20.2;69.9
78438;SHT31;67736;51.978;5.656;2023-08-20T04:40:13;20.2;69.7
78438;SHT31;67736;51.978;5.656;2023-08-20T04:42:43;20.1;70.1
78438;SHT31;67736;51.978;5.656;2023-08-20T04:45:14;20.1;70.5
78438;SHT31;67736;51.978;5.656;2023-08-20T04:47:45;20.1;70.5
78438;SHT31;67736;51.978;5.656;2023-08-20T04:50:15;20.1;70.8
78438;SHT31;67736;51.978;5.656;2023-08-20T04:52:45;20.0;70.3
78438;SHT31;67736;51.978;5.656;2023-08-20T04:55:14;20.0;70.5
78438;SHT31;67736;51.978;5.656;2023-08-20T04:57:44;20.0;70.5
78438;SHT31;67736;51.978;5.656;2023-08-20T05:00:17;20.0;70.6
78438;SHT31;67736;51.978;5.656;2023-08-20T05:02:47;20.0;70.2
78438;SHT31;67736;51.978;5.656;2023-08-20T05:05:16;20.0;70.3
78438;SHT31;67736;51.978;5.656;2023-08-20T05:07:46;20.0;70.4
78438;SHT31;67736;51.978;5.656;2023-08-20T05:10:16;20.0;70.8
78438;SHT31;67736;51.978;5.656;2023-08-20T05:12:45;20.0;70.8
78438;SHT31;67736;51.978;5.656;2023-08-20T05:15:15;20.0;70.9
78438;SHT31;67736;51.978;5.656;2023-08-20T05:17:45;20.0;71.2
78438;SHT31;67736;51.978;5.656;2023-08-20T05:20:14;20.0;71.7
78438;SHT31;67736;51.978;5.656;2023-08-20T05:22:44;20.0;72.0
78438;SHT31;67736;51.978;5.656;2023-08-20T05:25:13;20.0;72.4
78438;SHT31;67736;51.978;5.656;2023-08-20T05:27:43;20.0;72.3
78438;SHT31;67736;51.978;5.656;2023-08-20T05:30:13;20.0;72.5
78438;SHT31;67736;51.978;5.656;2023-08-20T05:32:42;20.0;72.8
78438;SHT31;67736;51.978;5.656;2023-08-20T05:35:12;20.0;73.3
78438;SHT31;67736;51.978;5.656;2023-08-20T05:37:41;20.0;73.3
78438;SHT31;67736;51.978;5.656;2023-08-20T05:40:11;20.0;73.5
78438;SHT31;67736;51.978;5.656;2023-08-20T05:42:41;20.0;73.7
78438;SHT31;67736;51.978;5.656;2023-08-20T05:45:11;20.1;74.1
78438;SHT31;67736;51.978;5.656;2023-08-20T05:47:42;20.1;74.3
78438;SHT31;67736;51.978;5.656;2023-08-20T05:50:12;20.1;74.4
78438;SHT31;67736;51.978;5.656;2023-08-20T05:52:41;20.2;74.5
78438;SHT31;67736;51.978;5.656;2023-08-20T05:55:10;20.2;74.5
78438;SHT31;67736;51.978;5.656;2023-08-20T05:57:40;20.3;74.4
78438;SHT31;67736;51.978;5.656;2023-08-20T06:00:11;20.3;74.5
78438;SHT31;67736;51.978;5.656;2023-08-20T06:02:40;20.4;74.4
78438;SHT31;67736;51.978;5.656;2023-08-20T06:05:10;20.4;74.2
78438;SHT31;67736;51.978;5.656;2023-08-20T06:07:40;20.5;73.7
78438;SHT31;67736;51.978;5.656;2023-08-20T06:10:10;20.5;73.3
78438;SHT31;67736;51.978;5.656;2023-08-20T06:12:40;20.6;72.5
78438;SHT31;67736;51.978;5.656;2023-08-20T06:15:09;20.6;72.0
78438;SHT31;67736;51.978;5.656;2023-08-20T06:17:39;20.6;72.2
78438;SHT31;67736;51.978;5.656;2023-08-20T06:20:09;20.7;71.7
78438;SHT31;67736;51.978;5.656;2023-08-20T06:22:39;20.7;71.3
78438;SHT31;67736;51.978;5.656;2023-08-20T06:25:11;20.8;71.1
78438;SHT31;67736;51.978;5.656;2023-08-20T06:27:41;20.8;70.9
78438;SHT31;67736;51.978;5.656;2023-08-20T06:30:11;20.8;70.9
78438;SHT31;67736;51.978;5.656;2023-08-20T06:32:43;20.9;70.8
78438;SHT31;67736;51.978;5.656;2023-08-20T06:35:15;20.9;70.4
78438;SHT31;67736;51.978;5.656;2023-08-20T06:37:44;20.9;70.7
78438;SHT31;67736;51.978;5.656;2023-08-20T06:40:14;20.9;70.4
78438;SHT31;67736;51.978;5.656;2023-08-20T06:42:44;21.0;70.3
78438;SHT31;67736;51.978;5.656;2023-08-20T06:45:15;21.0;70.0
78438;SHT31;67736;51.978;5.656;2023-08-20T06:47:45;21.0;70.4
78438;SHT31;67736;51.978;5.656;2023-08-20T06:50:14;21.0;70.2
78438;SHT31;67736;51.978;5.656;2023-08-20T06:52:46;21.0;69.6
78438;SHT31;67736;51.978;5.656;2023-08-20T06:55:15;21.1;69.7
78438;SHT31;67736;51.978;5.656;2023-08-20T06:57:45;21.1;69.6
78438;SHT31;67736;51.978;5.656;2023-08-20T07:00:15;21.1;69.0
78438;SHT31;67736;51.978;5.656;2023-08-20T07:02:46;21.2;69.2
78438;SHT31;67736;51.978;5.656;2023-08-20T07:05:16;21.2;69.0
78438;SHT31;67736;51.978;5.656;2023-08-20T07:07:47;21.2;68.8
78438;SHT31;67736;51.978;5.656;2023-08-20T07:10:18;21.3;68.3
78438;SHT31;67736;51.978;5.656;2023-08-20T07:12:48;21.3;68.1
78438;SHT31;67736;51.978;5.656;2023-08-20T07:15:19;21.3;67.9
78438;SHT31;67736;51.978;5.656;2023-08-20T07:17:49;21.4;68.1
78438;SHT31;67736;51.978;5.656;2023-08-20T07:20:19;21.4;68.1
78438;SHT31;67736;51.978;5.656;2023-08-20T07:22:48;21.4;68.6
78438;SHT31;67736;51.978;5.656;2023-08-20T07:25:18;21.5;68.2
78438;SHT31;67736;51.978;5.656;2023-08-20T07:27:50;21.5;68.4
78438;SHT31;67736;51.978;5.656;2023-08-20T07:30:20;21.6;68.9
78438;SHT31;67736;51.978;5.656;2023-08-20T07:32:50;21.6;69.2
78438;SHT31;67736;51.978;5.656;2023-08-20T07:35:19;21.7;67.9
78438;SHT31;67736;51.978;5.656;2023-08-20T07:37:49;21.8;67.2
78438;SHT31;67736;51.978;5.656;2023-08-20T07:40:18;21.9;67.4
78438;SHT31;67736;51.978;5.656;2023-08-20T07:42:49;22.0;67.8
78438;SHT31;67736;51.978;5.656;2023-08-20T07:45:19;22.1;67.6
78438;SHT31;67736;51.978;5.656;2023-08-20T07:47:48;22.2;66.8
78438;SHT31;67736;51.978;5.656;2023-08-20T07:50:18;22.5;66.3
78438;SHT31;67736;51.978;5.656;2023-08-20T07:52:47;22.7;65.1
78438;SHT31;67736;51.978;5.656;2023-08-20T07:55:17;23.0;64.4
78438;SHT31;67736;51.978;5.656;2023-08-20T07:57:46;23.3;63.3
78438;SHT31;67736;51.978;5.656;2023-08-20T08:00:17;23.5;61.6
78438;SHT31;67736;51.978;5.656;2023-08-20T08:02:47;23.8;60.7
78438;SHT31;67736;51.978;5.656;2023-08-20T08:05:16;24.1;59.8
78438;SHT31;67736;51.978;5.656;2023-08-20T08:07:46;24.4;59.1
78438;SHT31;67736;51.978;5.656;2023-08-20T08:10:15;24.6;57.6
78438;SHT31;67736;51.978;5.656;2023-08-20T08:12:45;24.9;57.9
78438;SHT31;67736;51.978;5.656;2023-08-20T08:15:15;25.2;56.9
78438;SHT31;67736;51.978;5.656;2023-08-20T08:17:44;25.5;55.7
78438;SHT31;67736;51.978;5.656;2023-08-20T08:20:16;25.8;55.3
78438;SHT31;67736;51.978;5.656;2023-08-20T08:22:45;26.1;55.5
78438;SHT31;67736;51.978;5.656;2023-08-20T08:25:15;26.5;54.7
78438;SHT31;67736;51.978;5.656;2023-08-20T08:27:45;26.8;53.3
78438;SHT31;67736;51.978;5.656;2023-08-20T08:30:15;27.1;52.4
78438;SHT31;67736;51.978;5.656;2023-08-20T08:32:45;27.3;53.2
78438;SHT31;67736;51.978;5.656;2023-08-20T08:35:16;27.6;51.0
78438;SHT31;67736;51.978;5.656;2023-08-20T08:37:49;27.9;50.7
78438;SHT31;67736;51.978;5.656;2023-08-20T08:40:19;28.1;49.2
78438;SHT31;67736;51.978;5.656;2023-08-20T08:42:49;28.4;48.1
78438;SHT31;67736;51.978;5.656;2023-08-20T08:45:20;28.6;48.5
78438;SHT31;67736;51.978;5.656;2023-08-20T08:47:51;28.8;47.2
78438;SHT31;67736;51.978;5.656;2023-08-20T08:50:23;28.9;46.9
78438;SHT31;67736;51.978;5.656;2023-08-20T08:52:53;29.0;46.6
78438;SHT31;67736;51.978;5.656;2023-08-20T08:55:24;29.0;47.0
78438;SHT31;67736;51.978;5.656;2023-08-20T08:57:53;29.1;46.6
78438;SHT31;67736;51.978;5.656;2023-08-20T09:00:23;29.3;46.2
78438;SHT31;67736;51.978;5.656;2023-08-20T09:02:53;29.4;44.5
78438;SHT31;67736;51.978;5.656;2023-08-20T09:05:22;29.6;44.8
78438;SHT31;67736;51.978;5.656;2023-08-20T09:07:56;29.7;45.6
78438;SHT31;67736;51.978;5.656;2023-08-20T09:10:27;29.9;44.6
78438;SHT31;67736;51.978;5.656;2023-08-20T09:12:57;30.2;44.9
78438;SHT31;67736;51.978;5.656;2023-08-20T09:15:33;30.4;43.6
78438;SHT31;67736;51.978;5.656;2023-08-20T09:18:03;30.7;40.7
78438;SHT31;67736;51.978;5.656;2023-08-20T09:20:37;30.8;40.5
78438;SHT31;67736;51.978;5.656;2023-08-20T09:23:12;30.9;40.7
78438;SHT31;67736;51.978;5.656;2023-08-20T09:25:43;31.0;41.4
78438;SHT31;67736;51.978;5.656;2023-08-20T09:28:13;31.2;40.6
78438;SHT31;67736;51.978;5.656;2023-08-20T09:30:56;31.3;40.1
78438;SHT31;67736;51.978;5.656;2023-08-20T09:33:26;31.5;39.4
78438;SHT31;67736;51.978;5.656;2023-08-20T09:35:55;31.6;37.4
78438;SHT31;67736;51.978;5.656;2023-08-20T09:38:27;31.7;37.4
78438;SHT31;67736;51.978;5.656;2023-08-20T09:40:56;31.8;39.0
78438;SHT31;67736;51.978;5.656;2023-08-20T09:43:30;32.0;38.4
78438;SHT31;67736;51.978;5.656;2023-08-20T09:46:02;32.2;36.1
78438;SHT31;67736;51.978;5.656;2023-08-20T09:48:35;32.5;35.7
78438;SHT31;67736;51.978;5.656;2023-08-20T09:51:11;32.6;35.7
78438;SHT31;67736;51.978;5.656;2023-08-20T09:53:47;32.7;36.3
78438;SHT31;67736;51.978;5.656;2023-08-20T09:56:23;32.8;34.9
78438;SHT31;67736;51.978;5.656;2023-08-20T09:58:57;32.9;34.3
78438;SHT31;67736;51.978;5.656;2023-08-20T10:01:27;32.9;34.7
78438;SHT31;67736;51.978;5.656;2023-08-20T10:03:58;33.0;34.8
78438;SHT31;67736;51.978;5.656;2023-08-20T10:06:29;33.0;34.5
78438;SHT31;67736;51.978;5.656;2023-08-20T10:09:01;33.1;34.5
78438;SHT31;67736;51.978;5.656;2023-08-20T10:11:31;33.1;34.7
78438;SHT31;67736;51.978;5.656;2023-08-20T10:14:01;33.1;35.0
78438;SHT31;67736;51.978;5.656;2023-08-20T10:16:32;33.1;35.6
78438;SHT31;67736;51.978;5.656;2023-08-20T10:19:04;33.2;34.6
78438;SHT31;67736;51.978;5.656;2023-08-20T10:21:35;33.2;34.2
78438;SHT31;67736;51.978;5.656;2023-08-20T10:24:05;33.2;35.2
78438;SHT31;67736;51.978;5.656;2023-08-20T10:26:36;33.2;34.8
78438;SHT31;67736;51.978;5.656;2023-08-20T10:29:37;33.2;35.1
78438;SHT31;67736;51.978;5.656;2023-08-20T10:32:09;33.2;34.3
78438;SHT31;67736;51.978;5.656;2023-08-20T10:34:42;33.2;34.3
78438;SHT31;67736;51.978;5.656;2023-08-20T10:37:13;33.1;34.5
78438;SHT31;67736;51.978;5.656;2023-08-20T10:39:42;32.9;34.0
78438;SHT31;67736;51.978;5.656;2023-08-20T10:42:29;32.7;33.6
78438;SHT31;67736;51.978;5.656;2023-08-20T10:45:05;32.5;34.9
78438;SHT31;67736;51.978;5.656;2023-08-20T10:47:43;32.2;34.5
78438;SHT31;67736;51.978;5.656;2023-08-20T10:50:20;32.1;35.0
78438;SHT31;67736;51.978;5.656;2023-08-20T10:52:55;31.9;35.3
78438;SHT31;67736;51.978;5.656;2023-08-20T10:55:25;31.8;35.3
78438;SHT31;67736;51.978;5.656;2023-08-20T10:57:59;31.6;34.9
78438;SHT31;67736;51.978;5.656;2023-08-20T11:00:29;31.3;35.5
78438;SHT31;67736;51.978;5.656;2023-08-20T11:02:59;31.1;36.1
78438;SHT31;67736;51.978;5.656;2023-08-20T11:05:29;30.9;35.9
78438;SHT31;67736;51.978;5.656;2023-08-20T11:07:59;30.7;36.0
78438;SHT31;67736;51.978;5.656;2023-08-20T11:10:31;30.5;36.7
78438;SHT31;67736;51.978;5.656;2023-08-20T11:13:02;30.4;37.8
78438;SHT31;67736;51.978;5.656;2023-08-20T11:15:33;30.3;38.3
78438;SHT31;67736;51.978;5.656;2023-08-20T11:18:06;30.2;38.2
78438;SHT31;67736;51.978;5.656;2023-08-20T11:20:36;30.1;38.9
78438;SHT31;67736;51.978;5.656;2023-08-20T11:23:06;30.1;38.1
78438;SHT31;67736;51.978;5.656;2023-08-20T11:25:40;30.0;39.8
78438;SHT31;67736;51.978;5.656;2023-08-20T11:28:10;29.9;40.9
78438;SHT31;67736;51.978;5.656;2023-08-20T11:30:40;29.9;39.1
78438;SHT31;67736;51.978;5.656;2023-08-20T11:33:11;29.9;39.3
78438;SHT31;67736;51.978;5.656;2023-08-20T11:35:41;29.9;39.3
78438;SHT31;67736;51.978;5.656;2023-08-20T11:38:12;29.8;37.2
78438;SHT31;67736;51.978;5.656;2023-08-20T11:40:42;29.8;37.4
78438;SHT31;67736;51.978;5.656;2023-08-20T11:43:12;29.7;39.3
78438;SHT31;67736;51.978;5.656;2023-08-20T11:45:50;29.6;39.3
78438;SHT31;67736;51.978;5.656;2023-08-20T11:48:20;29.6;40.4
78438;SHT31;67736;51.978;5.656;2023-08-20T11:50:51;29.6;39.8
78438;SHT31;67736;51.978;5.656;2023-08-20T11:53:23;29.6;37.7
78438;SHT31;67736;51.978;5.656;2023-08-20T11:55:53;29.5;37.8
78438;SHT31;67736;51.978;5.656;2023-08-20T11:58:22;29.5;38.8
78438;SHT31;67736;51.978;5.656;2023-08-20T12:00:54;29.4;37.9
78438;SHT31;67736;51.978;5.656;2023-08-20T12:03:29;29.3;38.0
78438;SHT31;67736;51.978;5.656;2023-08-20T12:05:58;29.3;38.6
78438;SHT31;67736;51.978;5.656;2023-08-20T12:08:28;29.3;38.6
78438;SHT31;67736;51.978;5.656;2023-08-20T12:11:01;29.2;38.5
78438;SHT31;67736;51.978;5.656;2023-08-20T12:13:30;29.2;39.1
78438;SHT31;67736;51.978;5.656;2023-08-20T12:16:00;29.1;39.5
78438;SHT31;67736;51.978;5.656;2023-08-20T12:18:32;29.1;40.0
78438;SHT31;67736;51.978;5.656;2023-08-20T12:21:03;29.1;39.3
78438;SHT31;67736;51.978;5.656;2023-08-20T12:23:32;29.0;39.8
78438;SHT31;67736;51.978;5.656;2023-08-20T12:26:01;29.0;39.3
78438;SHT31;67736;51.978;5.656;2023-08-20T12:28:33;29.0;40.0
78438;SHT31;67736;51.978;5.656;2023-08-20T12:31:03;28.9;40.7
78438;SHT31;67736;51.978;5.656;2023-08-20T12:33:32;28.9;39.6
78438;SHT31;67736;51.978;5.656;2023-08-20T12:36:02;28.9;39.2
78438;SHT31;67736;51.978;5.656;2023-08-20T12:38:31;28.9;39.3
78438;SHT31;67736;51.978;5.656;2023-08-20T12:41:02;28.9;39.2
78438;SHT31;67736;51.978;5.656;2023-08-20T12:43:32;28.9;39.4
78438;SHT31;67736;51.978;5.656;2023-08-20T12:46:02;28.9;39.7
78438;SHT31;67736;51.978;5.656;2023-08-20T12:48:32;28.8;40.0
78438;SHT31;67736;51.978;5.656;2023-08-20T12:51:02;28.8;39.5
78438;SHT31;67736;51.978;5.656;2023-08-20T12:53:32;28.8;40.2
78438;SHT31;67736;51.978;5.656;2023-08-20T12:56:01;28.7;40.5
78438;SHT31;67736;51.978;5.656;2023-08-20T12:58:31;28.7;40.3
78438;SHT31;67736;51.978;5.656;2023-08-20T13:01:01;28.7;39.6
78438;SHT31;67736;51.978;5.656;2023-08-20T13:03:31;28.7;39.6
78438;SHT31;67736;51.978;5.656;2023-08-20T13:06:03;28.7;40.1
78438;SHT31;67736;51.978;5.656;2023-08-20T13:08:33;28.7;39.8
78438;SHT31;67736;51.978;5.656;2023-08-20T13:11:03;28.7;40.4
78438;SHT31;67736;51.978;5.656;2023-08-20T13:13:33;28.7;40.9
78438;SHT31;67736;51.978;5.656;2023-08-20T13:16:04;28.7;40.1
78438;SHT31;67736;51.978;5.656;2023-08-20T13:18:34;28.6;40.4
78438;SHT31;67736;51.978;5.656;2023-08-20T13:21:05;28.6;39.4
78438;SHT31;67736;51.978;5.656;2023-08-20T13:23:36;28.6;39.2
78438;SHT31;67736;51.978;5.656;2023-08-20T13:26:05;28.6;40.0
78438;SHT31;67736;51.978;5.656;2023-08-20T13:28:35;28.6;40.3
78438;SHT31;67736;51.978;5.656;2023-08-20T13:31:04;28.6;39.5
78438;SHT31;67736;51.978;5.656;2023-08-20T13:33:34;28.5;39.6
78438;SHT31;67736;51.978;5.656;2023-08-20T13:36:04;28.5;40.3
78438;SHT31;67736;51.978;5.656;2023-08-20T13:38:34;28.5;41.2
78438;SHT31;67736;51.978;5.656;2023-08-20T13:41:04;28.5;41.0
78438;SHT31;67736;51.978;5.656;2023-08-20T13:43:33;28.5;41.7
78438;SHT31;67736;51.978;5.656;2023-08-20T13:46:03;28.5;40.9
78438;SHT31;67736;51.978;5.656;2023-08-20T13:48:33;28.5;40.4
78438;SHT31;67736;51.978;5.656;2023-08-20T13:51:02;28.5;41.4
78438;SHT31;67736;51.978;5.656;2023-08-20T13:53:32;28.5;41.5
78438;SHT31;67736;51.978;5.656;2023-08-20T13:56:02;28.5;40.4
78438;SHT31;67736;51.978;5.656;2023-08-20T13:58:31;28.6;39.9
78438;SHT31;67736;51.978;5.656;2023-08-20T14:01:01;28.6;39.7
78438;SHT31;67736;51.978;5.656;2023-08-20T14:03:31;28.6;39.8
78438;SHT31;67736;51.978;5.656;2023-08-20T14:06:00;28.5;39.6
78438;SHT31;67736;51.978;5.656;2023-08-20T14:08:30;28.5;39.2
78438;SHT31;67736;51.978;5.656;2023-08-20T14:11:00;28.5;39.7
78438;SHT31;67736;51.978;5.656;2023-08-20T14:13:30;28.5;40.2
78438;SHT31;67736;51.978;5.656;2023-08-20T14:16:00;28.5;40.6
78438;SHT31;67736;51.978;5.656;2023-08-20T14:18:31;28.5;39.6
78438;SHT31;67736;51.978;5.656;2023-08-20T14:21:01;28.5;40.3
78438;SHT31;67736;51.978;5.656;2023-08-20T14:23:30;28.5;41.0
78438;SHT31;67736;51.978;5.656;2023-08-20T14:26:00;28.5;40.2
78438;SHT31;67736;51.978;5.656;2023-08-20T14:28:30;28.5;40.5
78438;SHT31;67736;51.978;5.656;2023-08-20T14:31:03;28.5;41.0
78438;SHT31;67736;51.978;5.656;2023-08-20T14:33:33;28.5;40.7
78438;SHT31;67736;51.978;5.656;2023-08-20T14:36:03;28.5;39.9
78438;SHT31;67736;51.978;5.656;2023-08-20T14:38:33;28.5;39.4
78438;SHT31;67736;51.978;5.656;2023-08-20T14:41:03;28.5;39.9
78438;SHT31;67736;51.978;5.656;2023-08-20T14:43:33;28.5;40.9
78438;SHT31;67736;51.978;5.656;2023-08-20T14:46:03;28.5;40.7
78438;SHT31;67736;51.978;5.656;2023-08-20T14:48:32;28.5;41.1
78438;SHT31;67736;51.978;5.656;2023-08-20T14:51:02;28.5;40.7
78438;SHT31;67736;51.978;5.656;2023-08-20T14:53:32;28.5;41.3
78438;SHT31;67736;51.978;5.656;2023-08-20T14:56:02;28.5;40.0
78438;SHT31;67736;51.978;5.656;2023-08-20T14:58:31;28.5;40.3
78438;SHT31;67736;51.978;5.656;2023-08-20T15:01:03;28.5;41.2
78438;SHT31;67736;51.978;5.656;2023-08-20T15:03:33;28.5;40.6
78438;SHT31;67736;51.978;5.656;2023-08-20T15:06:02;28.5;40.3
78438;SHT31;67736;51.978;5.656;2023-08-20T15:08:32;28.5;39.9
78438;SHT31;67736;51.978;5.656;2023-08-20T15:11:02;28.5;39.9
78438;SHT31;67736;51.978;5.656;2023-08-20T15:13:32;28.6;39.9
78438;SHT31;67736;51.978;5.656;2023-08-20T15:16:02;28.6;41.0
78438;SHT31;67736;51.978;5.656;2023-08-20T15:18:31;28.6;40.6
78438;SHT31;67736;51.978;5.656;2023-08-20T15:21:01;28.6;41.3
78438;SHT31;67736;51.978;5.656;2023-08-20T15:23:31;28.6;41.2
78438;SHT31;67736;51.978;5.656;2023-08-20T15:26:01;28.6;40.6
78438;SHT31;67736;51.978;5.656;2023-08-20T15:28:31;28.6;40.4
78438;SHT31;67736;51.978;5.656;2023-08-20T15:31:01;28.6;40.4
78438;SHT31;67736;51.978;5.656;2023-08-20T15:33:31;28.6;41.0
78438;SHT31;67736;51.978;5.656;2023-08-20T15:36:00;28.6;39.7
78438;SHT31;67736;51.978;5.656;2023-08-20T15:38:32;28.6;39.9
78438;SHT31;67736;51.978;5.656;2023-08-20T15:41:01;28.6;40.0
78438;SHT31;67736;51.978;5.656;2023-08-20T15:43:31;28.6;40.9
78438;SHT31;67736;51.978;5.656;2023-08-20T15:46:01;28.6;40.6
78438;SHT31;67736;51.978;5.656;2023-08-20T15:48:30;28.6;40.2
78438;SHT31;67736;51.978;5.656;2023-08-20T15:51:00;28.6;41.5
78438;SHT31;67736;51.978;5.656;2023-08-20T15:53:29;28.5;41.9
78438;SHT31;67736;51.978;5.656;2023-08-20T15:56:00;28.5;42.1
78438;SHT31;67736;51.978;5.656;2023-08-20T15:58:30;28.5;42.6
78438;SHT31;67736;51.978;5.656;2023-08-20T16:01:00;28.5;41.4
78438;SHT31;67736;51.978;5.656;2023-08-20T16:03:30;28.5;42.2
78438;SHT31;67736;51.978;5.656;2023-08-20T16:05:59;28.5;42.4
78438;SHT31;67736;51.978;5.656;2023-08-20T16:08:31;28.5;42.2
78438;SHT31;67736;51.978;5.656;2023-08-20T16:11:02;28.5;42.0
78438;SHT31;67736;51.978;5.656;2023-08-20T16:13:32;28.4;41.4
78438;SHT31;67736;51.978;5.656;2023-08-20T16:16:03;28.4;41.9
78438;SHT31;67736;51.978;5.656;2023-08-20T16:18:33;28.4;41.9
78438;SHT31;67736;51.978;5.656;2023-08-20T16:21:02;28.4;41.9
78438;SHT31;67736;51.978;5.656;2023-08-20T16:23:32;28.4;41.6